createdAt,value
2022-12-05T00:01:42.520Z,100211.47
2022-12-05T00:04:14.692Z,100219.28
2022-12-05T00:06:43.232Z,100214.06
2022-12-05T00:09:13.657Z,100215.66
2022-12-05T00:11:44.961Z,100214.84
2022-12-05T00:14:13.741Z,100208.78
2022-12-05T00:16:44.173Z,100207.84
2022-12-05T00:19:15.189Z,100208.66
2022-12-05T00:21:43.386Z,100202.56
2022-12-05T00:24:15.387Z,100199.03
2022-12-05T00:26:43.704Z,100197.34
2022-12-05T00:29:11.037Z,100202.56
2022-12-05T00:31:38.940Z,100196.44
2022-12-05T00:34:06.897Z,100195.66
2022-12-05T00:36:36.827Z,100198.25
2022-12-05T00:39:12.016Z,100190.47
2022-12-05T00:41:39.827Z,100191.34
2022-12-05T00:44:08.200Z,100187.03
2022-12-05T00:46:36.764Z,100192.25
2022-12-05T00:49:06.997Z,100189.66
2022-12-05T00:51:41.554Z,100193.94
2022-12-05T00:54:14.300Z,100182.75
2022-12-05T00:56:43.219Z,100201.75
2022-12-05T00:59:17.543Z,100189.66
2022-12-05T01:01:47.844Z,100191.44
2022-12-05T01:04:23.294Z,100203.66
2022-12-05T01:06:54.903Z,100200.97
2022-12-05T01:09:22.638Z,100204.44
2022-12-05T01:11:50.860Z,100200.16
2022-12-05T01:14:22.083Z,100197.44
2022-12-05T01:16:52.930Z,100185.47
2022-12-05T01:19:26.180Z,100178.44
2022-12-05T01:21:54.727Z,100180.25
2022-12-05T01:24:25.021Z,100180.94
2022-12-05T01:27:20.125Z,100184.56
2022-12-05T01:29:47.299Z,100173.22
2022-12-05T01:32:14.669Z,100178.44
2022-12-05T01:34:42.019Z,100164.44
2022-12-05T01:37:09.284Z,100165.31
2022-12-05T01:39:36.450Z,100171.44
2022-12-05T01:42:05.877Z,100172.34
2022-12-05T01:44:32.975Z,100171.44
2022-12-05T01:47:00.152Z,100166.25
2022-12-05T01:49:40.718Z,100174.03
2022-12-05T01:52:22.863Z,100176.66
2022-12-05T01:54:55.667Z,100181.03
2022-12-05T01:57:23.951Z,100177.44
2022-12-05T02:00:00.229Z,100190.47
2022-12-05T02:02:32.266Z,100176.66
2022-12-05T02:05:25.722Z,100178.44
2022-12-05T02:07:53.196Z,100175.72
2022-12-05T02:10:21.503Z,100172.34
2022-12-05T02:12:51.458Z,100178.44
2022-12-05T02:15:45.260Z,100183.63
2022-12-05T02:18:57.264Z,100182.75
2022-12-05T02:21:52.438Z,100179.25
2022-12-05T02:24:50.445Z,100174.03
2022-12-05T02:28:15.194Z,100171.44
2022-12-05T02:30:57.858Z,100171.44
2022-12-05T02:34:06.820Z,100168.75
2022-12-05T02:37:02.473Z,100168.84
2022-12-05T02:40:05.429Z,100169.66
2022-12-05T02:43:11.018Z,100159.91
2022-12-05T02:45:41.610Z,100155.63
2022-12-05T02:48:11.492Z,100167.81
2022-12-05T02:50:42.346Z,100166.94
2022-12-05T02:53:15.793Z,100173.03
2022-12-05T02:55:45.697Z,100184.25
2022-12-05T02:58:26.913Z,100173.84
2022-12-05T03:00:58.445Z,100187.84
2022-12-05T03:03:26.791Z,100188.94
2022-12-05T03:06:22.000Z,100190.66
2022-12-05T03:09:05.304Z,100197.06
2022-12-05T03:11:48.800Z,100196.28
2022-12-05T03:14:28.838Z,100202.88
2022-12-05T03:17:06.577Z,100195.88
2022-12-05T03:20:19.616Z,100197.75
2022-12-05T03:23:04.224Z,100195.88
2022-12-05T03:25:58.012Z,100197.44
2022-12-05T03:28:46.706Z,100186.84
2022-12-05T03:31:21.555Z,100185.03
2022-12-05T03:33:56.893Z,100185.03
2022-12-05T03:36:38.494Z,100185.25
2022-12-05T03:39:29.450Z,100180.84
2022-12-05T03:42:13.877Z,100171.22
2022-12-05T03:45:06.712Z,100171.22
2022-12-05T03:48:05.713Z,100175.41
2022-12-05T03:50:35.254Z,100180.72
2022-12-05T03:53:21.389Z,100180.84
2022-12-05T03:56:12.730Z,100175.63
2022-12-05T03:59:14.242Z,100173.03
2022-12-05T04:01:43.635Z,100178.22
2022-12-05T04:04:20.940Z,100179.44
2022-12-05T04:06:51.748Z,100168.75
2022-12-05T04:09:27.355Z,100165.44
2022-12-05T04:12:06.849Z,100172.03
2022-12-05T04:14:51.012Z,100174.66
2022-12-05T04:17:53.922Z,100169.44
2022-12-05T04:20:58.159Z,100168.53
2022-12-05T04:23:27.901Z,100172.59
2022-12-05T04:26:21.634Z,100162.22
2022-12-05T04:29:32.308Z,100158.03
2022-12-05T04:32:06.947Z,100165.81
2022-12-05T04:34:37.764Z,100165.81
2022-12-05T04:37:13.617Z,100169.22
2022-12-05T04:40:28.736Z,100179.75
2022-12-05T04:42:59.348Z,100172.81
2022-12-05T04:45:27.498Z,100170.00
2022-12-05T04:48:12.318Z,100174.66
2022-12-05T04:50:42.523Z,100168.44
2022-12-05T04:53:12.727Z,100181.63
2022-12-05T04:55:47.772Z,100185.94
2022-12-05T04:58:20.854Z,100183.63
2022-12-05T05:01:20.062Z,100181.84
2022-12-05T05:04:26.425Z,100197.25
2022-12-05T05:06:53.823Z,100201.75
2022-12-05T05:09:21.086Z,100212.16
2022-12-05T05:11:48.940Z,100202.75
2022-12-05T05:14:16.127Z,100200.75
2022-12-05T05:16:44.768Z,100206.94
2022-12-05T05:19:12.964Z,100218.25
2022-12-05T05:21:42.721Z,100207.75
2022-12-05T05:24:12.163Z,100203.34
2022-12-05T05:26:43.197Z,100205.97
2022-12-05T05:29:12.274Z,100213.88
2022-12-05T05:31:41.561Z,100204.25
2022-12-05T05:34:12.273Z,100203.56
2022-12-05T05:36:39.668Z,100205.25
2022-12-05T05:39:14.920Z,100205.16
2022-12-05T05:41:43.398Z,100217.25
2022-12-05T05:44:10.916Z,100215.56
2022-12-05T05:46:38.608Z,100218.25
2022-12-05T05:49:06.290Z,100211.28
2022-12-05T05:51:34.197Z,100219.84
2022-12-05T05:54:01.563Z,100216.25
2022-12-05T05:56:29.434Z,100214.44
2022-12-05T05:59:03.982Z,100224.84
2022-12-05T06:01:32.067Z,100218.84
2022-12-05T06:03:59.757Z,100213.66
2022-12-05T06:06:27.585Z,100216.56
2022-12-05T06:08:55.326Z,100220.06
2022-12-05T06:11:27.109Z,100213.97
2022-12-05T06:14:02.030Z,100217.34
2022-12-05T06:16:31.489Z,100214.75
2022-12-05T06:18:59.472Z,100213.88
2022-12-05T06:21:27.212Z,100213.88
2022-12-05T06:23:55.451Z,100224.38
2022-12-05T06:26:23.201Z,100227.09
2022-12-05T06:28:50.667Z,100232.50
2022-12-05T06:31:28.316Z,100228.97
2022-12-05T06:33:55.537Z,100231.59
2022-12-05T06:36:23.147Z,100238.47
2022-12-05T06:38:50.400Z,100236.88
2022-12-05T06:41:20.535Z,100239.50
2022-12-05T06:43:47.772Z,100246.50
2022-12-05T06:46:15.926Z,100244.91
2022-12-05T06:48:43.339Z,100244.91
2022-12-05T06:51:15.451Z,100246.59
2022-12-05T06:53:43.241Z,100244.91
2022-12-05T06:56:15.712Z,100252.13
2022-12-05T06:58:49.744Z,100250.22
2022-12-05T07:01:39.416Z,100259.81
2022-12-05T07:04:24.271Z,100252.72
2022-12-05T07:06:54.430Z,100255.31
2022-12-05T07:09:44.851Z,100254.41
2022-12-05T07:12:18.880Z,100258.72
2022-12-05T07:14:48.982Z,100259.50
2022-12-05T07:17:19.782Z,100263.94
2022-12-05T07:19:52.716Z,100255.31
2022-12-05T07:22:22.720Z,100264.03
2022-12-05T07:24:53.207Z,100257.09
2022-12-05T07:27:26.559Z,100268.75
2022-12-05T07:29:55.083Z,100266.94
2022-12-05T07:32:22.385Z,100269.53
2022-12-05T07:34:54.737Z,100276.34
2022-12-05T07:37:22.900Z,100276.53
2022-12-05T07:39:51.420Z,100273.13
2022-12-05T07:42:18.620Z,100277.47
2022-12-05T07:44:45.756Z,100275.75
2022-12-05T07:47:13.007Z,100279.25
2022-12-05T07:49:40.588Z,100287.16
2022-12-05T07:52:07.805Z,100286.94
2022-12-05T07:54:35.001Z,100283.34
2022-12-05T07:57:02.188Z,100293.75
2022-12-05T07:59:29.415Z,100298.94
2022-12-05T08:01:56.781Z,100291.13
2022-12-05T08:04:24.124Z,100292.16
2022-12-05T08:06:51.306Z,100288.53
2022-12-05T08:09:18.496Z,100287.75
2022-12-05T08:11:51.008Z,100298.28
2022-12-05T08:14:20.379Z,100293.94
2022-12-05T08:16:48.470Z,100289.56
2022-12-05T08:19:17.086Z,100293.06
2022-12-05T08:21:44.806Z,100291.34
2022-12-05T08:24:12.700Z,100284.47
2022-12-05T08:26:40.724Z,100285.16
2022-12-05T08:29:15.229Z,100283.53
2022-12-05T08:31:49.649Z,100293.19
2022-12-05T08:34:20.362Z,100288.75
2022-12-05T08:36:47.768Z,100295.78
2022-12-05T08:39:19.561Z,100292.38
2022-12-05T08:41:47.767Z,100294.38
2022-12-05T08:44:16.977Z,100291.41
2022-12-05T08:46:48.610Z,100296.31
2022-12-05T08:49:16.860Z,100295.78
2022-12-05T08:51:45.060Z,100306.19
2022-12-05T08:54:12.873Z,100304.56
2022-12-05T08:56:40.195Z,100299.44
2022-12-05T08:59:07.831Z,100305.06
2022-12-05T09:01:38.829Z,100308.63
2022-12-05T09:04:07.051Z,100306.66
2022-12-05T09:06:35.622Z,100307.81
2022-12-05T09:09:08.015Z,100305.00
2022-12-05T09:11:46.012Z,100317.44
2022-12-05T09:14:13.877Z,100312.81
2022-12-05T09:16:43.841Z,100320.16
2022-12-05T09:19:24.821Z,100321.72
2022-12-05T09:21:52.092Z,100336.44
2022-12-05T09:24:19.819Z,100336.00
2022-12-05T09:26:47.723Z,100338.28
2022-12-05T09:29:18.028Z,100332.94
2022-12-05T09:31:48.783Z,100330.31
2022-12-05T09:34:17.885Z,100328.38
2022-12-05T09:36:55.643Z,100315.56
2022-12-05T09:39:25.784Z,100317.53
2022-12-05T09:42:34.062Z,100297.75
2022-12-05T09:45:35.842Z,100282.78
2022-12-05T09:48:16.833Z,100298.81
2022-12-05T09:51:02.546Z,100303.16
2022-12-05T09:53:39.045Z,100302.53
2022-12-05T09:56:09.057Z,100305.88
2022-12-05T09:58:46.757Z,100302.13
2022-12-05T10:01:45.812Z,100297.16
2022-12-05T10:04:51.640Z,100310.59
2022-12-05T10:07:48.423Z,100304.09
2022-12-05T10:10:56.513Z,100305.19
2022-12-05T10:13:49.852Z,100310.78
2022-12-05T10:16:59.204Z,100305.59
2022-12-05T10:19:42.114Z,100309.53
2022-12-05T10:22:20.713Z,100315.41
2022-12-05T10:25:05.603Z,100309.31
2022-12-05T10:27:50.392Z,100308.41
2022-12-05T10:30:24.557Z,100301.63
2022-12-05T10:32:59.131Z,100296.63
2022-12-05T10:35:37.354Z,100297.81
2022-12-05T10:38:29.488Z,100275.72
2022-12-05T10:41:08.497Z,100272.22
2022-12-05T10:43:40.572Z,100274.59
2022-12-05T10:46:12.766Z,100276.44
2022-12-05T10:48:43.792Z,100277.03
2022-12-05T10:51:25.541Z,100265.22
2022-12-05T10:53:54.193Z,100265.31
2022-12-05T10:56:48.893Z,100251.03
2022-12-05T10:59:21.067Z,100243.50
2022-12-05T11:01:56.351Z,100242.41
2022-12-05T11:04:27.307Z,100242.03
2022-12-05T11:07:01.054Z,100234.38
2022-12-05T11:09:37.728Z,100231.22
2022-12-05T11:12:23.869Z,100235.59
2022-12-05T11:15:19.323Z,100247.03
2022-12-05T11:17:47.442Z,100238.22
2022-12-05T11:20:20.543Z,100242.72
2022-12-05T11:22:54.576Z,100244.50
2022-12-05T11:25:36.709Z,100251.59
2022-12-05T11:28:35.048Z,100232.09
2022-12-05T11:31:28.211Z,100228.31
2022-12-05T11:34:23.759Z,100235.19
2022-12-05T11:37:13.644Z,100231.56
2022-12-05T11:39:41.260Z,100237.59
2022-12-05T11:42:38.901Z,100232.34
2022-12-05T11:45:33.236Z,100234.94
2022-12-05T11:48:57.044Z,100226.56
2022-12-05T11:51:40.051Z,100223.00
2022-12-05T11:55:10.226Z,100221.78
2022-12-05T11:58:12.513Z,100218.59
2022-12-05T12:01:24.200Z,100209.88
2022-12-05T12:04:20.892Z,100206.97
2022-12-05T12:07:35.836Z,100203.25
2022-12-05T12:10:37.437Z,100197.44
2022-12-05T12:13:41.349Z,100195.47
2022-12-05T12:16:47.605Z,100202.75
2022-12-05T12:19:47.747Z,100189.94
2022-12-05T12:22:52.027Z,100184.63
2022-12-05T12:25:57.604Z,100191.44
2022-12-05T12:28:52.643Z,100184.53
2022-12-05T12:31:53.790Z,100177.09
2022-12-05T12:34:58.876Z,100178.53
2022-12-05T12:37:38.787Z,100181.50
2022-12-05T12:40:46.100Z,100186.22
2022-12-05T12:43:55.553Z,100183.31
2022-12-05T12:46:53.204Z,100174.09
2022-12-05T12:50:10.393Z,100174.50
2022-12-05T12:53:08.455Z,100163.78
2022-12-05T12:56:16.014Z,100162.19
2022-12-05T12:59:10.059Z,100159.88
2022-12-05T13:02:28.839Z,100153.41
2022-12-05T13:05:38.210Z,100155.81
2022-12-05T13:08:16.234Z,100151.66
2022-12-05T13:10:47.380Z,100153.69
2022-12-05T13:13:24.114Z,100146.84
2022-12-05T13:15:58.069Z,100143.66
2022-12-05T13:18:26.736Z,100149.06
2022-12-05T13:21:02.479Z,100147.78
2022-12-05T13:23:34.239Z,100159.28
2022-12-05T13:26:08.788Z,100161.69
2022-12-05T13:28:52.976Z,100148.38
2022-12-05T13:31:40.358Z,100144.47
2022-12-05T13:34:27.663Z,100158.00
2022-12-05T13:37:17.807Z,100152.25
2022-12-05T13:40:13.739Z,100157.28
2022-12-05T13:42:41.408Z,100158.81
2022-12-05T13:45:17.041Z,100153.88
2022-12-05T13:48:22.322Z,100149.06
2022-12-05T13:50:58.700Z,100147.34
2022-12-05T13:53:43.732Z,100158.69
2022-12-05T13:56:13.802Z,100149.97
2022-12-05T13:58:48.476Z,100151.19
2022-12-05T14:01:28.123Z,100144.06
2022-12-05T14:04:02.191Z,100148.75
2022-12-05T14:06:38.554Z,100142.44
2022-12-05T14:09:17.881Z,100156.47
2022-12-05T14:12:13.012Z,100155.78
2022-12-05T14:15:02.203Z,100160.69
2022-12-05T14:17:44.097Z,100164.09
2022-12-05T14:20:38.833Z,100158.00
2022-12-05T14:23:55.928Z,100162.47
2022-12-05T14:27:07.429Z,100154.19
2022-12-05T14:30:34.012Z,100161.31
2022-12-05T14:33:02.798Z,100158.31
2022-12-05T14:35:46.175Z,100153.69
2022-12-05T14:38:40.215Z,100155.97
2022-12-05T14:41:27.198Z,100159.28
2022-12-05T14:43:56.703Z,100169.72
2022-12-05T14:46:32.461Z,100168.13
2022-12-05T14:49:55.512Z,100161.91
2022-12-05T14:52:28.703Z,100171.31
2022-12-05T14:55:11.045Z,100161.69
2022-12-05T14:57:48.915Z,100162.50
2022-12-05T15:00:23.595Z,100162.31
2022-12-05T15:02:55.400Z,100157.31
2022-12-05T15:05:32.301Z,100152.19
2022-12-05T15:08:02.066Z,100162.00
2022-12-05T15:10:39.009Z,100148.06
2022-12-05T15:13:17.658Z,100149.09
2022-12-05T15:16:13.332Z,100146.38
2022-12-05T15:18:49.601Z,100151.78
2022-12-05T15:21:33.440Z,100141.56
2022-12-05T15:24:17.413Z,100141.56
2022-12-05T15:26:57.989Z,100149.78
2022-12-05T15:29:29.643Z,100138.28
2022-12-05T15:32:10.284Z,100143.19
2022-12-05T15:35:05.059Z,100142.28
2022-12-05T15:38:13.936Z,100148.19
2022-12-05T15:40:47.561Z,100151.47
2022-12-05T15:43:36.609Z,100161.50
2022-12-05T15:46:20.778Z,100161.69
2022-12-05T15:48:48.818Z,100163.50
2022-12-05T15:51:16.635Z,100159.88
2022-12-05T15:53:56.474Z,100166.00
2022-12-05T15:56:36.951Z,100165.28
2022-12-05T15:59:19.179Z,100164.00
2022-12-05T16:02:04.941Z,100167.41
2022-12-05T16:04:59.519Z,100165.59
2022-12-05T16:07:31.059Z,100163.81
2022-12-05T16:10:00.772Z,100176.09
2022-12-05T16:12:39.976Z,100172.31
2022-12-05T16:15:25.120Z,100173.19
2022-12-05T16:17:57.059Z,100168.28
2022-12-05T16:20:37.094Z,100175.91
2022-12-05T16:23:30.460Z,100167.59
2022-12-05T16:26:21.199Z,100161.88
2022-12-05T16:29:02.593Z,100169.84
2022-12-05T16:31:32.707Z,100167.16
2022-12-05T16:34:07.998Z,100165.63
2022-12-05T16:36:35.545Z,100166.34
2022-12-05T16:39:06.289Z,100173.09
2022-12-05T16:41:39.669Z,100175.59
2022-12-05T16:45:02.137Z,100165.00
2022-12-05T16:47:59.334Z,100176.09
2022-12-05T16:50:34.953Z,100167.97
2022-12-05T16:53:09.625Z,100179.09
2022-12-05T16:55:42.024Z,100177.75
2022-12-05T16:58:19.333Z,100179.31
2022-12-05T17:00:46.603Z,100186.75
2022-12-05T17:03:33.422Z,100187.16
2022-12-05T17:06:01.210Z,100191.09
2022-12-05T17:08:28.500Z,100196.81
2022-12-05T17:10:56.070Z,100191.84
2022-12-05T17:13:23.644Z,100198.25
2022-12-05T17:15:51.264Z,100199.34
2022-12-05T17:18:26.605Z,100189.97
2022-12-05T17:20:57.729Z,100204.66
2022-12-05T17:23:25.307Z,100199.66
2022-12-05T17:25:58.793Z,100209.09
2022-12-05T17:28:26.115Z,100209.84
2022-12-05T17:30:53.443Z,100205.66
2022-12-05T17:33:20.648Z,100204.19
2022-12-05T17:35:47.937Z,100200.88
2022-12-05T17:38:15.173Z,100205.38
2022-12-05T17:40:42.881Z,100202.88
2022-12-05T17:43:19.901Z,100203.69
2022-12-05T17:45:50.409Z,100198.50
2022-12-05T17:48:17.699Z,100203.69
2022-12-05T17:50:48.475Z,100193.28
2022-12-05T17:53:19.966Z,100199.50
2022-12-05T17:55:50.617Z,100200.88
2022-12-05T17:58:18.354Z,100206.19
2022-12-05T18:00:47.066Z,100200.88
2022-12-05T18:03:17.492Z,100210.47
2022-12-05T18:05:47.076Z,100201.69
2022-12-05T18:08:16.494Z,100203.06
2022-12-05T18:10:47.977Z,100206.59
2022-12-05T18:13:17.251Z,100214.06
2022-12-05T18:15:47.973Z,100210.66
2022-12-05T18:18:17.811Z,100213.16
2022-12-05T18:20:45.125Z,100215.88
2022-12-05T18:23:12.584Z,100220.06
2022-12-05T18:25:40.934Z,100212.25
2022-12-05T18:28:08.221Z,100210.47
2022-12-05T18:30:35.397Z,100211.06
2022-12-05T18:33:02.640Z,100214.22
2022-12-05T18:35:42.508Z,100211.41
2022-12-05T18:38:12.876Z,100215.53
2022-12-05T18:40:40.123Z,100216.69
2022-12-05T18:43:07.370Z,100214.34
2022-12-05T18:45:34.707Z,100208.28
2022-12-05T18:48:23.263Z,100212.59
2022-12-05T18:50:49.194Z,100211.63
2022-12-05T18:53:16.819Z,100208.25
2022-12-05T18:56:20.953Z,100214.81
2022-12-05T18:58:31.327Z,100217.63
2022-12-05T19:01:11.643Z,100225.19
2022-12-05T19:03:40.048Z,100220.13
2022-12-05T19:06:20.545Z,100223.50
2022-12-05T19:08:48.433Z,100225.56
2022-12-05T19:11:19.388Z,100234.13
2022-12-05T19:13:47.937Z,100229.81
2022-12-05T19:16:19.572Z,100229.13
2022-12-05T19:18:47.357Z,100224.97
2022-12-05T19:21:14.596Z,100220.34
2022-12-05T19:23:41.971Z,100223.41
2022-12-05T19:26:10.382Z,100222.56
2022-12-05T19:28:38.398Z,100222.00
2022-12-05T19:31:13.629Z,100231.31
2022-12-05T19:33:45.737Z,100225.19
2022-12-05T19:36:23.898Z,100223.63
2022-12-05T19:38:53.205Z,100219.09
2022-12-05T19:41:28.883Z,100221.34
2022-12-05T19:44:01.645Z,100219.44
2022-12-05T19:46:32.157Z,100222.50
2022-12-05T19:49:08.217Z,100224.09
2022-12-05T19:51:36.156Z,100227.16
2022-12-05T19:54:06.375Z,100230.19
2022-12-05T19:56:35.509Z,100221.97
2022-12-05T19:59:04.805Z,100214.03
2022-12-05T20:01:35.522Z,100220.75
2022-12-05T20:04:13.340Z,100215.09
2022-12-05T20:06:49.805Z,100218.50
2022-12-05T20:09:21.229Z,100223.78
2022-12-05T20:11:55.536Z,100214.63
2022-12-05T20:14:25.618Z,100224.50
2022-12-05T20:16:54.191Z,100226.63
2022-12-05T20:19:23.427Z,100229.34
2022-12-05T20:21:50.759Z,100226.03
2022-12-05T20:24:17.993Z,100231.22
2022-12-05T20:26:45.344Z,100234.31
2022-12-05T20:29:12.536Z,100241.47
2022-12-05T20:31:42.838Z,100240.63
2022-12-05T20:34:13.563Z,100245.38
2022-12-05T20:36:41.902Z,100236.28
2022-12-05T20:39:18.455Z,100240.50
2022-12-05T20:41:46.139Z,100242.59
2022-12-05T20:44:16.992Z,100239.72
2022-12-05T20:46:44.489Z,100235.56
2022-12-05T20:49:14.889Z,100231.97
2022-12-05T20:51:45.320Z,100240.91
2022-12-05T20:54:14.342Z,100231.47
2022-12-05T20:56:41.702Z,100231.47
2022-12-05T20:59:12.769Z,100230.13
2022-12-05T21:01:41.137Z,100234.81
2022-12-05T21:04:09.077Z,100231.00
2022-12-05T21:06:41.369Z,100217.31
2022-12-05T21:09:26.237Z,100226.63
2022-12-05T21:11:56.722Z,100223.25
2022-12-05T21:14:24.650Z,100230.25
2022-12-05T21:16:53.134Z,100229.66
2022-12-05T21:19:21.917Z,100231.16
2022-12-05T21:21:50.856Z,100218.03
2022-12-05T21:24:18.129Z,100215.09
2022-12-05T21:26:46.633Z,100215.53
2022-12-05T21:29:13.940Z,100208.69
2022-12-05T21:31:45.267Z,100211.94
2022-12-05T21:34:21.073Z,100209.63
2022-12-05T21:36:48.961Z,100215.59
2022-12-05T21:39:16.681Z,100214.03
2022-12-05T21:41:43.951Z,100215.59
2022-12-05T21:44:11.204Z,100223.59
2022-12-05T21:46:38.540Z,100217.50
2022-12-05T21:49:06.042Z,100225.19
2022-12-05T21:51:33.229Z,100224.72
2022-12-05T21:54:00.465Z,100215.13
2022-12-05T21:56:28.361Z,100229.50
2022-12-05T21:58:55.641Z,100223.41
2022-12-05T22:01:27.956Z,100222.13
2022-12-05T22:04:01.500Z,100220.69
2022-12-05T22:06:33.957Z,100221.66
2022-12-05T22:09:02.016Z,100224.59
2022-12-05T22:11:29.776Z,100215.28
2022-12-05T22:13:57.025Z,100217.63
2022-12-05T22:16:29.197Z,100220.72
2022-12-05T22:18:59.673Z,100222.94
2022-12-05T22:21:26.952Z,100223.16
2022-12-05T22:23:54.259Z,100231.06
2022-12-05T22:26:25.460Z,100223.53
2022-12-05T22:28:55.638Z,100228.94
2022-12-05T22:31:24.470Z,100234.59
2022-12-05T22:33:52.145Z,100228.06
2022-12-05T22:36:20.201Z,100227.84
2022-12-05T22:38:48.897Z,100223.22
2022-12-05T22:41:26.127Z,100228.88
2022-12-05T22:43:59.876Z,100228.88
2022-12-05T22:46:29.003Z,100228.31
2022-12-05T22:48:57.067Z,100224.50
2022-12-05T22:51:24.842Z,100220.00
2022-12-05T22:53:53.440Z,100227.31
2022-12-05T22:56:24.071Z,100227.84
2022-12-05T22:59:00.604Z,100224.00
2022-12-05T23:01:33.255Z,100210.44
2022-12-05T23:04:09.168Z,100221.22
2022-12-05T23:06:37.762Z,100221.22
2022-12-05T23:09:09.875Z,100214.00
2022-12-05T23:11:37.738Z,100216.94
2022-12-05T23:14:06.911Z,100212.97
2022-12-05T23:16:34.863Z,100216.03
2022-12-05T23:19:05.519Z,100222.69
2022-12-05T23:21:39.823Z,100215.06
2022-12-05T23:24:11.927Z,100208.28
2022-12-05T23:26:45.094Z,100221.25
2022-12-05T23:29:14.103Z,100205.97
2022-12-05T23:31:42.482Z,100207.19
2022-12-05T23:34:11.003Z,100206.16
2022-12-05T23:36:39.016Z,100201.53
2022-12-05T23:39:06.764Z,100203.00
2022-12-05T23:41:34.192Z,100202.53
2022-12-05T23:44:01.636Z,100203.63
2022-12-05T23:46:29.746Z,100201.53
2022-12-05T23:48:57.968Z,100198.38
2022-12-05T23:51:30.311Z,100185.69
2022-12-05T23:54:01.527Z,100194.75
2022-12-05T23:56:32.808Z,100184.53
2022-12-05T23:59:03.407Z,100181.56
